Seneimaru — JG5357 — position and weather

sailwx.info

Track history (hours):
 
Tides and Currents Weather Stations Pressure Air Temp Water Temp Dewpoint Dewpoint Depression Visibility Wind Speed Wind Dir Waves Ship Positions

Seneimaru

Last reported at 2017-Mar-29 04:33 UTC. Time now 2017-Mar-29 05:25 UTC.
Position N 35°30' E 139°43'.

Length 72 m; draft 5.9 m.

Type: Cargo ship. MMSI: 431100477.

Date/timePositionNaut miles runAvg speedWind from/ knotsBaromVisibWave heightAir tempDewpointWater temp
2017-Mar-29 04:33N 35°30' E 139°43'0 0.0
2017-Mar-29 03:33N 35°30' E 139°43'0 0.0
2017-Mar-29 02:33N 35°30' E 139°43'0 0.0
2017-Mar-29 01:33N 35°30' E 139°43'0 0.0
2017-Mar-29 00:33N 35°30' E 139°43'0 0.0
2017-Mar-28 23:33N 35°30' E 139°43'1 1.5
2017-Mar-28 22:34N 35°29' E 139°42'4 4.1
2017-Mar-28 21:33N 35°26' E 139°45'10 9.6
2017-Mar-28 20:33N 35°16' E 139°46'5 0.1
2017-Mar-27 07:29N 35°11' E 139°46'9 9.7
2017-Mar-27 06:33N 35°20' E 139°43'9 9.3
2017-Mar-27 05:33N 35°28' E 139°47'4 3.7
2017-Mar-27 04:33N 35°30' E 139°43'0 0.0
2017-Mar-27 03:33N 35°30' E 139°43'0 0.0
2017-Mar-27 02:33N 35°30' E 139°43'0 0.0
2017-Mar-27 01:33N 35°30' E 139°43'0 0.0
2017-Mar-27 00:33N 35°30' E 139°43'0 0.0
2017-Mar-26 23:33N 35°30' E 139°43'0 0.0
2017-Mar-26 22:33N 35°30' E 139°43'0 0.0
2017-Mar-26 21:33N 35°30' E 139°43'0 0.0
2017-Mar-26 20:33N 35°30' E 139°43'0 0.0
2017-Mar-26 19:33N 35°30' E 139°43'0 0.0
2017-Mar-26 18:33N 35°30' E 139°43'0 0.0
2017-Mar-26 17:33N 35°30' E 139°43'0 0.0
2017-Mar-26 16:33N 35°30' E 139°43'0 0.0
2017-Mar-26 15:33N 35°30' E 139°43'0 0.0
2017-Mar-26 14:33N 35°30' E 139°43'0 0.0
2017-Mar-26 13:33N 35°30' E 139°43'0 0.0
2017-Mar-26 12:33N 35°30' E 139°43'0 0.0
2017-Mar-26 11:33N 35°30' E 139°43'0 0.0
2017-Mar-26 10:33N 35°30' E 139°43'0 0.0
2017-Mar-26 09:33N 35°30' E 139°43'0 0.0
2017-Mar-26 08:33N 35°30' E 139°43'0 0.0
2017-Mar-26 07:33N 35°30' E 139°43'0 0.0
2017-Mar-26 06:33N 35°30' E 139°43'0 0.0
2017-Mar-26 05:33N 35°30' E 139°43'0 0.0
2017-Mar-26 04:33N 35°30' E 139°43'0 0.0
2017-Mar-26 03:33N 35°30' E 139°43'0 0.0
2017-Mar-26 02:33N 35°30' E 139°43'0 0.0
2017-Mar-26 01:33N 35°30' E 139°43'0 0.0
2017-Mar-26 00:33N 35°30' E 139°43'0 0.0
2017-Mar-25 23:33N 35°30' E 139°43'0 0.0
2017-Mar-25 22:33N 35°30' E 139°43'0 0.0
2017-Mar-25 21:33N 35°30' E 139°43'0 0.0
2017-Mar-25 20:33N 35°30' E 139°43'1 1.5
2017-Mar-25 19:34N 35°29' E 139°42'6 6.0
2017-Mar-25 18:32N 35°23' E 139°44'0 0.0
2017-Mar-25 17:32N 35°23' E 139°44'0 0.1
2017-Mar-25 16:32N 35°23' E 139°44'6 6.3
2017-Mar-25 15:33N 35°17' E 139°45'1 0.0
2017-Mar-24 04:33N 35°16' E 139°46'1010.0
2017-Mar-24 03:33N 35°26' E 139°44'5 4.7
2017-Mar-24 02:34N 35°30' E 139°43'0 0.0
2017-Mar-24 01:33N 35°30' E 139°43'0 0.0
2017-Mar-24 00:34N 35°30' E 139°43'0 0.0
2017-Mar-23 23:34N 35°30' E 139°43'3 3.3
2017-Mar-23 22:33N 35°27' E 139°44'6 6.0
2017-Mar-23 21:34N 35°21' E 139°45'1010.3
2017-Mar-23 20:33N 35°11' E 139°47'14 0.4
2017-Mar-22 11:26N 34°57' E 139°44'1011.2
2017-Mar-22 10:34N 35°07' E 139°45'1211.7
2017-Mar-22 09:34N 35°18' E 139°44'1110.6
2017-Mar-22 08:33N 35°28' E 139°47'4 3.8
2017-Mar-22 07:34N 35°30' E 139°43'0 0.0
2017-Mar-22 06:34N 35°30' E 139°43'0 0.0
2017-Mar-22 05:34N 35°30' E 139°43'0 0.0
2017-Mar-22 04:34N 35°30' E 139°43'0 0.0
2017-Mar-22 03:34N 35°30' E 139°43'0 0.0
2017-Mar-22 02:34N 35°30' E 139°43'0 0.0
2017-Mar-22 01:33N 35°30' E 139°43'0 0.0
2017-Mar-22 00:34N 35°30' E 139°43'4 3.6
2017-Mar-21 23:33N 35°27' E 139°43'4 3.8
2017-Mar-21 22:33N 35°23' E 139°45'0 0.0
2017-Mar-21 21:34N 35°23' E 139°45'0 0.0
2017-Mar-21 20:33N 35°23' E 139°45'0 0.0
2017-Mar-21 19:33N 35°23' E 139°45'0 0.0
2017-Mar-21 18:33N 35°23' E 139°45'0 0.0
2017-Mar-21 17:32N 35°23' E 139°45'0 0.0
2017-Mar-21 16:33N 35°23' E 139°45'0 0.0
2017-Mar-21 15:32N 35°23' E 139°45'0 0.0
2017-Mar-21 14:33N 35°23' E 139°45'0 0.0
2017-Mar-21 13:29N 35°23' E 139°45'7 7.9
2017-Mar-21 12:34N 35°16' E 139°46'1010.4
2017-Mar-21 11:34N 35°05' E 139°45'9 0.3
2017-Mar-20 03:16N 34°57' E 139°44'912.1
2017-Mar-20 02:33N 35°05' E 139°45'1212.1
2017-Mar-20 01:33N 35°18' E 139°44'1110.8
2017-Mar-20 00:33N 35°28' E 139°47'4 3.9
2017-Mar-19 23:33N 35°30' E 139°43'0 0.0
2017-Mar-19 22:33N 35°30' E 139°43'0 0.0
2017-Mar-19 21:33N 35°30' E 139°43'0 0.0
2017-Mar-19 20:33N 35°30' E 139°43'5 5.2
2017-Mar-19 19:33N 35°25' E 139°44'2 2.2
2017-Mar-19 18:33N 35°23' E 139°45'0 0.0
2017-Mar-19 17:33N 35°23' E 139°45'0 0.0
2017-Mar-19 16:33N 35°23' E 139°45'0 0.0
2017-Mar-19 15:33N 35°23' E 139°45'0 0.0
2017-Mar-19 14:34N 35°23' E 139°45'9 9.2
2017-Mar-19 13:33N 35°14' E 139°47'1211.7
2017-Mar-19 12:33N 35°02' E 139°44'  
Track history (hours):
 
Tides and Currents Weather Stations Pressure Air Temp Water Temp Dewpoint Dewpoint Depression Visibility Wind Speed Wind Dir Waves Ship Positions

Seneimaru

Last reported at 2017-Mar-29 04:33 UTC. Time now 2017-Mar-29 05:25 UTC.
Position N 35°30' E 139°43'.

Length 72 m; draft 5.9 m.

Type: Cargo ship. MMSI: 431100477.

Date/timePositionNaut miles runAvg speedWind from/ knotsBaromVisibWave heightAir tempDewpointWater temp
2017-Mar-29 04:33N 35°30' E 139°43'0 0.0
2017-Mar-29 03:33N 35°30' E 139°43'0 0.0
2017-Mar-29 02:33N 35°30' E 139°43'0 0.0
2017-Mar-29 01:33N 35°30' E 139°43'0 0.0
2017-Mar-29 00:33N 35°30' E 139°43'0 0.0
2017-Mar-28 23:33N 35°30' E 139°43'1 1.5
2017-Mar-28 22:34N 35°29' E 139°42'4 4.1
2017-Mar-28 21:33N 35°26' E 139°45'10 9.6
2017-Mar-28 20:33N 35°16' E 139°46'5 0.1
2017-Mar-27 07:29N 35°11' E 139°46'9 9.7
2017-Mar-27 06:33N 35°20' E 139°43'9 9.3
2017-Mar-27 05:33N 35°28' E 139°47'4 3.7
2017-Mar-27 04:33N 35°30' E 139°43'0 0.0
2017-Mar-27 03:33N 35°30' E 139°43'0 0.0
2017-Mar-27 02:33N 35°30' E 139°43'0 0.0
2017-Mar-27 01:33N 35°30' E 139°43'0 0.0
2017-Mar-27 00:33N 35°30' E 139°43'0 0.0
2017-Mar-26 23:33N 35°30' E 139°43'0 0.0
2017-Mar-26 22:33N 35°30' E 139°43'0 0.0
2017-Mar-26 21:33N 35°30' E 139°43'0 0.0
2017-Mar-26 20:33N 35°30' E 139°43'0 0.0
2017-Mar-26 19:33N 35°30' E 139°43'0 0.0
2017-Mar-26 18:33N 35°30' E 139°43'0 0.0
2017-Mar-26 17:33N 35°30' E 139°43'0 0.0
2017-Mar-26 16:33N 35°30' E 139°43'0 0.0
2017-Mar-26 15:33N 35°30' E 139°43'0 0.0
2017-Mar-26 14:33N 35°30' E 139°43'0 0.0
2017-Mar-26 13:33N 35°30' E 139°43'0 0.0
2017-Mar-26 12:33N 35°30' E 139°43'0 0.0
2017-Mar-26 11:33N 35°30' E 139°43'0 0.0
2017-Mar-26 10:33N 35°30' E 139°43'0 0.0
2017-Mar-26 09:33N 35°30' E 139°43'0 0.0
2017-Mar-26 08:33N 35°30' E 139°43'0 0.0
2017-Mar-26 07:33N 35°30' E 139°43'0 0.0
2017-Mar-26 06:33N 35°30' E 139°43'0 0.0
2017-Mar-26 05:33N 35°30' E 139°43'0 0.0
2017-Mar-26 04:33N 35°30' E 139°43'0 0.0
2017-Mar-26 03:33N 35°30' E 139°43'0 0.0
2017-Mar-26 02:33N 35°30' E 139°43'0 0.0
2017-Mar-26 01:33N 35°30' E 139°43'0 0.0
2017-Mar-26 00:33N 35°30' E 139°43'0 0.0
2017-Mar-25 23:33N 35°30' E 139°43'0 0.0
2017-Mar-25 22:33N 35°30' E 139°43'0 0.0
2017-Mar-25 21:33N 35°30' E 139°43'0 0.0
2017-Mar-25 20:33N 35°30' E 139°43'1 1.5
2017-Mar-25 19:34N 35°29' E 139°42'6 6.0
2017-Mar-25 18:32N 35°23' E 139°44'0 0.0
2017-Mar-25 17:32N 35°23' E 139°44'0 0.1
2017-Mar-25 16:32N 35°23' E 139°44'6 6.3
2017-Mar-25 15:33N 35°17' E 139°45'1 0.0
2017-Mar-24 04:33N 35°16' E 139°46'1010.0
2017-Mar-24 03:33N 35°26' E 139°44'5 4.7
2017-Mar-24 02:34N 35°30' E 139°43'0 0.0
2017-Mar-24 01:33N 35°30' E 139°43'0 0.0
2017-Mar-24 00:34N 35°30' E 139°43'0 0.0
2017-Mar-23 23:34N 35°30' E 139°43'3 3.3
2017-Mar-23 22:33N 35°27' E 139°44'6 6.0
2017-Mar-23 21:34N 35°21' E 139°45'1010.3
2017-Mar-23 20:33N 35°11' E 139°47'14 0.4
2017-Mar-22 11:26N 34°57' E 139°44'1011.2
2017-Mar-22 10:34N 35°07' E 139°45'1211.7
2017-Mar-22 09:34N 35°18' E 139°44'1110.6
2017-Mar-22 08:33N 35°28' E 139°47'4 3.8
2017-Mar-22 07:34N 35°30' E 139°43'0 0.0
2017-Mar-22 06:34N 35°30' E 139°43'0 0.0
2017-Mar-22 05:34N 35°30' E 139°43'0 0.0
2017-Mar-22 04:34N 35°30' E 139°43'0 0.0
2017-Mar-22 03:34N 35°30' E 139°43'0 0.0
2017-Mar-22 02:34N 35°30' E 139°43'0 0.0
2017-Mar-22 01:33N 35°30' E 139°43'0 0.0
2017-Mar-22 00:34N 35°30' E 139°43'4 3.6
2017-Mar-21 23:33N 35°27' E 139°43'4 3.8
2017-Mar-21 22:33N 35°23' E 139°45'0 0.0
2017-Mar-21 21:34N 35°23' E 139°45'0 0.0
2017-Mar-21 20:33N 35°23' E 139°45'0 0.0
2017-Mar-21 19:33N 35°23' E 139°45'0 0.0
2017-Mar-21 18:33N 35°23' E 139°45'0 0.0
2017-Mar-21 17:32N 35°23' E 139°45'0 0.0
2017-Mar-21 16:33N 35°23' E 139°45'0 0.0
2017-Mar-21 15:32N 35°23' E 139°45'0 0.0
2017-Mar-21 14:33N 35°23' E 139°45'0 0.0
2017-Mar-21 13:29N 35°23' E 139°45'7 7.9
2017-Mar-21 12:34N 35°16' E 139°46'1010.4
2017-Mar-21 11:34N 35°05' E 139°45'9 0.3
2017-Mar-20 03:16N 34°57' E 139°44'912.1
2017-Mar-20 02:33N 35°05' E 139°45'1212.1
2017-Mar-20 01:33N 35°18' E 139°44'1110.8
2017-Mar-20 00:33N 35°28' E 139°47'4 3.9
2017-Mar-19 23:33N 35°30' E 139°43'0 0.0
2017-Mar-19 22:33N 35°30' E 139°43'0 0.0
2017-Mar-19 21:33N 35°30' E 139°43'0 0.0
2017-Mar-19 20:33N 35°30' E 139°43'5 5.2
2017-Mar-19 19:33N 35°25' E 139°44'2 2.2
2017-Mar-19 18:33N 35°23' E 139°45'0 0.0
2017-Mar-19 17:33N 35°23' E 139°45'0 0.0
2017-Mar-19 16:33N 35°23' E 139°45'0 0.0
2017-Mar-19 15:33N 35°23' E 139°45'0 0.0
2017-Mar-19 14:34N 35°23' E 139°45'9 9.2
2017-Mar-19 13:33N 35°14' E 139°47'1211.7
2017-Mar-19 12:33N 35°02' E 139°44'  

Dump ship's entire track history